Blue Oak Ranch Reserve, California Weather observations

Data are for 10 minute period ending at time listed.
 Day   Time   Solar   Ave.   Ave.  Ave.  Vector  Max.   Baro.   Total    
  of    of     Rad.   Air    Rel.  Wind   Wind   Wind  Press.  Precip.   
Year   Day            Temp.  Hum.  Speed  Dir.   Gust                    
2016   (PST)  Kw/m2    F      %     mph   deg.    mph    mb.     in.     
-------------------------------------------------------------------------
 126    1:00   0.00   49.0    92    2.1   303     4.2   944.3    0.00 
 126    1:10   0.00   49.1    93    1.1   285     2.8   944.1    0.00 
 126    1:20   0.00   49.2    93    1.3   258     2.3   944.1    0.00 
 126    1:30   0.00   49.1    93    1.0   287     2.3   944.0    0.00 
 126    1:40   0.00   49.0    93    1.1   324     1.9   943.8    0.00 
 126    1:50   0.00   49.0    93    0.3    19     1.7   943.7    0.00 
 126    2:00   0.00   49.1    94    0.1    85     0.8   943.6    0.00 
 126    2:10   0.00   49.1    94    0.1   104     0.9   943.6    0.00 
 126    2:20   0.00   49.2    94    0.3    41     1.2   943.6    0.00 
 126    2:30   0.00   49.2    94    0.5    89     1.1   943.6    0.00 
 126    2:40   0.00   49.2    94    0.1    92     0.7   943.6    0.00 
 126    2:50   0.00   49.3    94    0.2    48     0.9   943.6    0.00 
 126    3:00   0.00   49.3    94    0.3   114     1.3   943.6    0.00 
 126    3:10   0.00   49.3    94    0.2   121     0.8   943.6    0.00 
 126    3:20   0.00   49.1    94    0.5   128     2.1   943.6    0.00 
 126    3:30   0.00   48.8    94    0.0    80     0.7   943.6    0.00 
 126    3:40   0.00   48.6    94    0.7   120     1.7   943.6    0.00 
 126    3:50   0.00   48.4    94    1.0   114     2.1   943.6    0.00 
 126    4:00   0.00   48.3    95    2.1   150     4.5   943.7    0.00 
 126    4:10   0.00   48.2    95    4.0   141     7.1   943.7    0.00 
 126    4:20   0.00   48.1    95    3.5   143     5.9   943.7    0.00 
 126    4:30   0.00   48.1    95    2.7   158     5.2   943.7    0.00 
 126    4:40   0.00   48.1    95    3.5   157     6.6   943.7    0.00 
 126    4:50   0.00   48.1    95    3.2   137     6.2   943.7    0.00 
 126    5:00   0.00   48.1    95    2.3   150     4.7   943.8    0.00 
 126    5:10   0.00   48.2    95    2.2   158     5.1   943.8    0.00 
 126    5:20   0.01   48.2    95    1.6   155     5.1   943.7    0.00 
 126    5:30   0.01   48.2    95    2.1   138     5.9   943.7    0.00 
 126    5:40   0.03   48.2    94    0.7    88     2.9   943.7    0.00 
 126    5:50   0.03   48.2    94    0.6    60     2.3   943.7    0.00 
 126    6:00   0.06   48.4    94    0.7    95     2.4   943.7    0.00 
 126    6:10   0.07   48.9    94    0.4   135     1.8   943.7    0.00 
 126    6:20   0.05   49.2    93    0.3   150     1.5   943.7    0.00 
 126    6:30   0.05   49.5    93    1.1   160     3.9   943.6    0.00 
 126    6:40   0.07   49.4    93    1.7   158     3.9   943.6    0.00 
 126    6:50   0.07   49.8    92    1.5   153     3.1   943.6    0.00 
 126    7:00   0.09   50.1    92    1.1   152     2.3   943.5    0.00 
 126    7:10   0.09   50.7    91    1.2   141     3.2   943.5    0.00 
 126    7:20   0.11   51.1    90    1.3   172     3.7   943.5    0.00 
 126    7:30   0.12   51.3    89    1.6   179     4.8   943.5    0.00 
 126    7:40   0.15   51.4    89    1.9   140     4.5   943.6    0.00 
 126    7:50   0.13   51.7    89    1.5   114     3.1   943.6    0.00 
 126    8:00   0.12   52.1    86    1.6   163     3.4   943.7    0.00 
 126    8:10   0.14   52.3    85    1.8   130     3.4   943.7    0.00 
 126    8:20   0.12   52.2    86    3.6   153     5.1   943.7    0.00 
 126    8:30   0.17   52.0    87    3.2   145     6.1   943.7    0.00 
 126    8:40   0.19   52.4    86    3.0   147     5.5   943.8    0.00 
 126    8:50   0.21   52.9    85    3.3   145     5.9   943.7    0.00 
 126    9:00   0.21   53.2    83    2.9   164     5.8   943.7    0.00 
 126    9:10   0.32   53.4    81    3.4   152     6.6   943.6    0.00 
 126    9:20   0.37   53.8    78    3.8   131     6.4   943.5    0.00 
 126    9:30   0.42   54.4    77    4.0   154     6.8   943.5    0.00 
 126    9:40   0.56   55.2    72    3.7   136     7.1   943.5    0.00 
 126    9:50   0.49   56.1    69    4.1   136     7.5   943.5    0.00 
 126   10:00   0.55   56.8    68    2.9   177     6.5   943.5    0.00 
 126   10:10   0.45   56.9    68    5.7   140    10.6   943.5    0.00 
 126   10:20   0.46   56.5    70    4.7   150     9.6   943.5    0.00 
 126   10:30   0.48   56.5    70    3.4   146     7.2   943.5    0.00 
 126   10:40   0.48   58.1    66    4.8   212    11.1   943.5    0.00 
 126   10:50   0.25   56.7    68    4.6   217     8.5   943.5    0.00 
 126   11:00   0.15   56.1    70    4.5   237     7.5   943.5    0.00 
 126   11:10   0.18   55.4    76    6.1   270     9.7   943.6    0.00 
 126   11:20   0.13   55.0    78    5.7   269     9.8   943.6    0.00 
 126   11:30   0.29   55.1    77    4.8   267     9.9   943.7    0.00 
 126   11:40   0.34   56.1    75    6.4   264    11.1   943.7    0.00 
 126   11:50   0.47   57.5    72    4.4   270     7.8   943.6    0.00 
 126   12:00   0.40   57.5    70    4.7   230     8.2   943.7    0.00 
 126   12:10   0.58   58.2    67    4.3   250     8.9   943.6    0.00 
 126   12:20   0.34   59.0    66    5.9   263    10.0   943.5    0.00 
 126   12:30   0.24   58.1    68    5.4   267    10.2   943.7    0.00 
 126   12:40   0.39   57.7    68    4.1   283     7.7   943.6    0.00 
 126   12:50   0.33   58.4    65    3.9   232     7.6   943.5    0.00 
 126   13:00   0.71   59.5    63    4.8   280    10.1   943.5    0.00 
 126   13:10   0.42   60.4    60    6.3   259    13.4   943.5    0.00 
 126   13:20   0.36   60.5    60    4.3   247     9.9   943.5    0.00 
 126   13:30   0.31   59.7    61    3.6   218     9.5   943.6    0.00 
 126   13:40   0.30   59.1    62    5.3   239     9.6   943.6    0.00 
 126   13:50   0.23   58.7    63    7.3   284    12.3   943.6    0.00 
 126   14:00   0.18   58.3    64    5.0   266    11.2   943.5    0.00 
 126   14:10   0.20   58.3    66    5.6   268    11.2   943.5    0.00 
 126   14:20   0.15   58.0    66    5.9   262    10.7   943.4    0.00 
 126   14:30   0.26   57.9    66    4.6   277     8.2   943.3    0.00 
 126   14:40   0.25   58.7    63    3.5   258     6.5   943.3    0.00 
 126   14:50   0.09   58.7    63    2.9   278     7.2   943.2    0.00 
 126   15:00   0.07   58.0    65    2.0   276     4.1   943.2    0.00 
 126   15:10   0.09   57.8    65    2.5   243     5.0   943.2    0.00 
 126   15:20   0.08   57.7    65    2.9   258     4.7   943.2    0.00 
 126   15:30   0.07   57.5    66    2.1   276     3.8   943.3    0.00 
 126   15:40   0.06   57.3    66    4.0   258     7.9   943.4    0.00 
 126   15:50   0.06   56.8    67    3.9   269     7.1   943.4    0.00 
 126   16:00   0.07   56.4    68    4.4   254     7.8   943.4    0.00 
 126   16:10   0.06   56.1    68    5.0   260     8.5   943.4    0.00 
 126   16:20   0.06   55.8    70    6.2   267    11.0   943.3    0.00 
 126   16:30   0.07   55.5    71    5.5   267    11.0   943.3    0.00 
 126   16:40   0.09   55.3    73    4.5   244     8.7   943.2    0.00 
 126   16:50   0.14   55.2    75    3.9   262     6.9   943.0    0.00 
 126   17:00   0.14   55.6    76    1.5   277     4.1   942.9    0.00 
 126   17:10   0.07   55.7    75    1.0   229     2.6   943.1    0.00 
 126   17:20   0.14   55.5    78    4.1   305     8.9   943.0    0.00 
 126   17:30   0.09   55.3    79    3.0   330     6.4   943.0    0.00 
 126   17:40   0.05   55.2    80    3.4   289     6.9   943.0    0.00 
 126   17:50   0.05   55.1    79    4.1   311     7.7   943.0    0.00 
 126   18:00   0.04   55.1    78    1.7     4     3.8   943.0    0.00 
 126   18:10   0.03   55.0    78    3.6   303     5.5   943.0    0.00 
 126   18:20   0.03   54.6    80    2.2   297     3.6   943.0    0.00 
 126   18:30   0.02   54.4    83    3.1   290     4.3   943.1    0.00 
 126   18:40   0.03   53.8    86    3.1   304     4.3   943.3    0.00 
 126   18:50   0.02   53.7    87    2.2   295     3.7   943.3    0.00 
 126   19:00   0.01   53.7    88    2.2   309     3.4   943.3    0.00 
 126   19:10   0.01   53.5    88    2.3   298     3.2   943.3    0.00 
 126   19:20   0.00   53.4    89    1.7   296     2.3   943.5    0.00 
 126   19:30   0.00   53.2    88    2.1   311     2.9   943.7    0.00 
 126   19:40   0.00   53.4    89    3.4   284     5.3   943.8    0.00 
 126   19:50   0.00   53.1    89    1.5   311     3.4   943.9    0.00 
 126   20:00   0.00   53.1    90    0.5    78     1.4   943.9    0.00 
 126   20:10   0.00   53.1    91    0.9    38     2.0   943.8    0.00 
 126   20:20   0.00   53.2    91    1.1    23     2.2   943.8    0.00 
 126   20:30   0.00   53.1    90    0.7   316     2.6   943.7    0.00 
 126   20:40   0.00   53.0    90    1.0   246     2.6   943.8    0.00 
 126   20:50   0.00   52.9    90    2.1   277     3.7   943.8    0.00 
 126   21:00   0.00   52.6    90    0.9   100     1.8   943.8    0.00 
 126   21:10   0.00   52.1    91    3.4   136     5.8   943.6    0.00 
 126   21:20   0.00   51.8    90    1.5   233     3.4   943.5    0.00 
 126   21:30   0.00   51.0    91    2.8   303     5.3   943.5    0.00 
 126   21:40   0.00   50.3    91    1.4    39     3.7   943.6    0.00 
 126   21:50   0.00   49.3    92    0.7    71     2.3   943.6    0.00 
 126   22:00   0.00   48.8    93    1.0    10     2.0   943.6    0.00 
 126   22:10   0.00   48.4    93    0.8    36     2.2   943.7    0.00 
 126   22:20   0.00   48.7    94    0.1    28     1.1   943.7    0.00 
 126   22:30   0.00   48.8    94    0.4   293     2.6   943.7    0.00 
 126   22:40   0.00   49.2    94    0.9   273     2.4   943.7    0.00 
 126   22:50   0.00   49.4    94    0.1   261     0.7   943.7    0.00 
 126   23:00   0.00   49.7    94    0.8   293     2.2   943.8    0.00 
 126   23:10   0.00   50.0    94    0.3   256     2.1   943.8    0.00 
 126   23:20   0.00   50.2    94    0.8   313     2.0   943.8    0.00 
 126   23:30   0.00   50.3    94    0.6   126     1.6   943.8    0.00 
 126   23:40   0.00   50.4    94    0.2    35     1.4   943.8    0.00 
 126   23:50   0.00   50.7    94    0.9    26     2.0   943.8    0.00 
 127    0:00   0.00   50.8    94    0.4   215     1.7   943.7    0.00 
 127    0:10   0.00   50.8    94    1.0   287     2.0   943.7    0.00 
 127    0:20   0.00   50.7    94    0.9   321     2.5   943.7    0.00 
 127    0:30   0.00   50.8    94    0.9   258     1.9   943.7    0.00 
 127    0:40   0.00   51.0    93    0.9   304     3.2   943.6    0.00 
 127    0:50   0.00   50.9    92    3.7   302     7.2   943.6    0.00 

Return to Blue Oak Ranch Reserve graphs page.


Western Regional Climate Center,wrcc@dri.edu